sensor_id;sensor_type;location;lat;lon;timestamp;P1;durP1;ratioP1;P2;durP2;ratioP2
37655;SDS011;23498;50.958;3.124;2023-05-24T00:01:35;15.05;;;4.15;;
37655;SDS011;23498;50.958;3.124;2023-05-24T00:04:01;17.40;;;3.78;;
37655;SDS011;23498;50.958;3.124;2023-05-24T00:06:27;13.73;;;3.95;;
37655;SDS011;23498;50.958;3.124;2023-05-24T00:08:53;13.18;;;3.90;;
37655;SDS011;23498;50.958;3.124;2023-05-24T00:11:19;16.23;;;4.30;;
37655;SDS011;23498;50.958;3.124;2023-05-24T00:13:46;16.20;;;4.15;;
37655;SDS011;23498;50.958;3.124;2023-05-24T00:16:12;12.88;;;4.18;;
37655;SDS011;23498;50.958;3.124;2023-05-24T00:18:39;13.48;;;4.15;;
37655;SDS011;23498;50.958;3.124;2023-05-24T00:21:08;17.52;;;4.43;;
37655;SDS011;23498;50.958;3.124;2023-05-24T00:23:35;11.80;;;4.15;;
37655;SDS011;23498;50.958;3.124;2023-05-24T00:26:02;13.13;;;4.38;;
37655;SDS011;23498;50.958;3.124;2023-05-24T00:28:29;18.20;;;4.28;;
37655;SDS011;23498;50.958;3.124;2023-05-24T00:30:55;16.13;;;5.05;;
37655;SDS011;23498;50.958;3.124;2023-05-24T00:33:21;12.32;;;4.38;;
37655;SDS011;23498;50.958;3.124;2023-05-24T00:35:48;15.45;;;4.47;;
37655;SDS011;23498;50.958;3.124;2023-05-24T00:38:18;11.98;;;4.70;;
37655;SDS011;23498;50.958;3.124;2023-05-24T00:40:44;14.30;;;4.72;;
37655;SDS011;23498;50.958;3.124;2023-05-24T00:43:10;18.05;;;4.45;;
37655;SDS011;23498;50.958;3.124;2023-05-24T00:45:36;11.05;;;4.30;;
37655;SDS011;23498;50.958;3.124;2023-05-24T00:48:02;12.18;;;4.32;;
37655;SDS011;23498;50.958;3.124;2023-05-24T00:50:28;16.02;;;4.97;;
37655;SDS011;23498;50.958;3.124;2023-05-24T00:52:54;14.75;;;5.25;;
37655;SDS011;23498;50.958;3.124;2023-05-24T00:55:20;17.35;;;5.03;;
37655;SDS011;23498;50.958;3.124;2023-05-24T00:57:46;13.73;;;5.18;;
37655;SDS011;23498;50.958;3.124;2023-05-24T01:00:12;16.67;;;5.28;;
37655;SDS011;23498;50.958;3.124;2023-05-24T01:02:39;15.75;;;4.57;;
37655;SDS011;23498;50.958;3.124;2023-05-24T01:05:05;14.13;;;4.45;;
37655;SDS011;23498;50.958;3.124;2023-05-24T01:07:36;16.05;;;4.90;;
37655;SDS011;23498;50.958;3.124;2023-05-24T01:15:33;15.65;;;6.03;;
37655;SDS011;23498;50.958;3.124;2023-05-24T01:18:15;14.00;;;4.90;;
37655;SDS011;23498;50.958;3.124;2023-05-24T01:20:41;17.15;;;5.53;;
37655;SDS011;23498;50.958;3.124;2023-05-24T01:28:21;17.20;;;5.50;;
37655;SDS011;23498;50.958;3.124;2023-05-24T01:30:48;19.20;;;5.60;;
37655;SDS011;23498;50.958;3.124;2023-05-24T01:33:15;17.98;;;5.35;;
37655;SDS011;23498;50.958;3.124;2023-05-24T01:35:41;19.02;;;5.80;;
37655;SDS011;23498;50.958;3.124;2023-05-24T01:38:08;17.33;;;5.50;;
37655;SDS011;23498;50.958;3.124;2023-05-24T01:40:38;19.60;;;5.40;;
37655;SDS011;23498;50.958;3.124;2023-05-24T01:43:20;17.13;;;5.43;;
37655;SDS011;23498;50.958;3.124;2023-05-24T01:50:54;12.35;;;5.43;;
37655;SDS011;23498;50.958;3.124;2023-05-24T01:53:22;15.63;;;5.40;;
37655;SDS011;23498;50.958;3.124;2023-05-24T01:55:50;17.08;;;5.18;;
37655;SDS011;23498;50.958;3.124;2023-05-24T01:58:18;25.25;;;5.72;;
37655;SDS011;23498;50.958;3.124;2023-05-24T02:00:45;17.90;;;4.90;;
37655;SDS011;23498;50.958;3.124;2023-05-24T02:03:14;17.75;;;5.55;;
37655;SDS011;23498;50.958;3.124;2023-05-24T02:05:41;14.90;;;5.50;;
37655;SDS011;23498;50.958;3.124;2023-05-24T02:08:08;14.98;;;4.97;;
37655;SDS011;23498;50.958;3.124;2023-05-24T02:10:35;14.88;;;5.28;;
37655;SDS011;23498;50.958;3.124;2023-05-24T02:13:04;14.75;;;5.50;;
37655;SDS011;23498;50.958;3.124;2023-05-24T02:15:30;14.98;;;5.50;;
37655;SDS011;23498;50.958;3.124;2023-05-24T02:17:57;17.90;;;5.32;;
37655;SDS011;23498;50.958;3.124;2023-05-24T02:20:23;19.13;;;5.60;;
37655;SDS011;23498;50.958;3.124;2023-05-24T02:22:49;17.05;;;5.43;;
37655;SDS011;23498;50.958;3.124;2023-05-24T02:25:15;15.02;;;4.93;;
37655;SDS011;23498;50.958;3.124;2023-05-24T02:27:41;16.75;;;5.50;;
37655;SDS011;23498;50.958;3.124;2023-05-24T02:30:11;17.58;;;5.25;;
37655;SDS011;23498;50.958;3.124;2023-05-24T02:32:37;16.40;;;4.70;;
37655;SDS011;23498;50.958;3.124;2023-05-24T02:35:03;13.32;;;4.95;;
37655;SDS011;23498;50.958;3.124;2023-05-24T02:37:30;16.02;;;5.75;;
37655;SDS011;23498;50.958;3.124;2023-05-24T02:39:56;22.52;;;5.63;;
37655;SDS011;23498;50.958;3.124;2023-05-24T02:42:22;11.77;;;4.90;;
37655;SDS011;23498;50.958;3.124;2023-05-24T02:44:48;14.73;;;5.90;;
37655;SDS011;23498;50.958;3.124;2023-05-24T02:47:16;14.10;;;5.40;;
37655;SDS011;23498;50.958;3.124;2023-05-24T02:49:42;13.90;;;4.93;;
37655;SDS011;23498;50.958;3.124;2023-05-24T02:52:08;16.92;;;5.70;;
37655;SDS011;23498;50.958;3.124;2023-05-24T02:54:34;14.48;;;5.15;;
37655;SDS011;23498;50.958;3.124;2023-05-24T02:57:01;13.93;;;5.38;;
37655;SDS011;23498;50.958;3.124;2023-05-24T02:59:27;14.43;;;5.25;;
37655;SDS011;23498;50.958;3.124;2023-05-24T03:01:53;16.00;;;5.35;;
37655;SDS011;23498;50.958;3.124;2023-05-24T03:04:19;17.75;;;5.10;;
37655;SDS011;23498;50.958;3.124;2023-05-24T03:06:45;15.45;;;5.45;;
37655;SDS011;23498;50.958;3.124;2023-05-24T03:09:11;15.82;;;5.53;;
37655;SDS011;23498;50.958;3.124;2023-05-24T03:11:37;16.52;;;6.13;;
37655;SDS011;23498;50.958;3.124;2023-05-24T03:14:03;17.23;;;5.70;;
37655;SDS011;23498;50.958;3.124;2023-05-24T03:16:30;15.45;;;5.47;;
37655;SDS011;23498;50.958;3.124;2023-05-24T03:18:56;16.88;;;5.60;;
37655;SDS011;23498;50.958;3.124;2023-05-24T03:21:23;18.23;;;6.07;;
37655;SDS011;23498;50.958;3.124;2023-05-24T03:23:50;16.83;;;5.78;;
37655;SDS011;23498;50.958;3.124;2023-05-24T03:26:16;15.32;;;5.82;;
37655;SDS011;23498;50.958;3.124;2023-05-24T03:28:43;21.55;;;6.20;;
37655;SDS011;23498;50.958;3.124;2023-05-24T03:31:09;16.65;;;6.07;;
37655;SDS011;23498;50.958;3.124;2023-05-24T03:33:36;17.23;;;5.95;;
37655;SDS011;23498;50.958;3.124;2023-05-24T03:36:02;17.10;;;6.38;;
37655;SDS011;23498;50.958;3.124;2023-05-24T03:38:28;19.00;;;6.07;;
37655;SDS011;23498;50.958;3.124;2023-05-24T03:40:55;19.33;;;6.00;;
37655;SDS011;23498;50.958;3.124;2023-05-24T03:43:21;16.23;;;5.30;;
37655;SDS011;23498;50.958;3.124;2023-05-24T03:45:47;16.83;;;5.75;;
37655;SDS011;23498;50.958;3.124;2023-05-24T03:48:13;16.58;;;5.85;;
37655;SDS011;23498;50.958;3.124;2023-05-24T03:50:39;16.17;;;5.78;;
37655;SDS011;23498;50.958;3.124;2023-05-24T03:53:05;14.70;;;5.75;;
37655;SDS011;23498;50.958;3.124;2023-05-24T03:55:31;14.38;;;5.55;;
37655;SDS011;23498;50.958;3.124;2023-05-24T03:57:57;14.73;;;5.45;;
37655;SDS011;23498;50.958;3.124;2023-05-24T04:00:23;13.55;;;5.95;;
37655;SDS011;23498;50.958;3.124;2023-05-24T04:02:50;16.77;;;6.47;;
37655;SDS011;23498;50.958;3.124;2023-05-24T04:05:16;12.32;;;5.57;;
37655;SDS011;23498;50.958;3.124;2023-05-24T04:07:42;15.88;;;5.88;;
37655;SDS011;23498;50.958;3.124;2023-05-24T04:10:09;15.15;;;5.18;;
37655;SDS011;23498;50.958;3.124;2023-05-24T04:12:35;19.00;;;5.15;;
37655;SDS011;23498;50.958;3.124;2023-05-24T04:15:01;15.48;;;5.28;;
37655;SDS011;23498;50.958;3.124;2023-05-24T04:17:27;14.38;;;5.75;;
37655;SDS011;23498;50.958;3.124;2023-05-24T04:19:56;12.05;;;5.30;;
37655;SDS011;23498;50.958;3.124;2023-05-24T04:22:22;14.75;;;6.32;;
37655;SDS011;23498;50.958;3.124;2023-05-24T04:24:48;18.55;;;6.40;;
37655;SDS011;23498;50.958;3.124;2023-05-24T04:27:14;17.48;;;6.50;;
37655;SDS011;23498;50.958;3.124;2023-05-24T04:29:43;20.42;;;6.68;;
37655;SDS011;23498;50.958;3.124;2023-05-24T04:32:18;20.70;;;6.55;;
37655;SDS011;23498;50.958;3.124;2023-05-24T04:34:44;19.45;;;6.55;;
37655;SDS011;23498;50.958;3.124;2023-05-24T04:37:10;15.57;;;6.18;;
37655;SDS011;23498;50.958;3.124;2023-05-24T04:39:38;16.70;;;6.32;;
37655;SDS011;23498;50.958;3.124;2023-05-24T04:42:05;14.73;;;6.70;;
37655;SDS011;23498;50.958;3.124;2023-05-24T04:44:31;14.82;;;6.72;;
37655;SDS011;23498;50.958;3.124;2023-05-24T04:46:57;12.52;;;6.10;;
37655;SDS011;23498;50.958;3.124;2023-05-24T04:49:24;18.42;;;6.85;;
37655;SDS011;23498;50.958;3.124;2023-05-24T04:51:51;17.95;;;6.43;;
37655;SDS011;23498;50.958;3.124;2023-05-24T04:54:17;19.30;;;6.97;;
37655;SDS011;23498;50.958;3.124;2023-05-24T04:56:43;19.65;;;7.10;;
37655;SDS011;23498;50.958;3.124;2023-05-24T04:59:09;16.63;;;6.63;;
37655;SDS011;23498;50.958;3.124;2023-05-24T05:01:35;18.27;;;6.93;;
37655;SDS011;23498;50.958;3.124;2023-05-24T05:04:01;16.90;;;6.82;;
37655;SDS011;23498;50.958;3.124;2023-05-24T05:06:31;21.13;;;7.80;;
37655;SDS011;23498;50.958;3.124;2023-05-24T05:09:02;17.85;;;7.35;;
37655;SDS011;23498;50.958;3.124;2023-05-24T05:11:28;24.55;;;9.55;;
37655;SDS011;23498;50.958;3.124;2023-05-24T05:13:54;28.00;;;9.88;;
37655;SDS011;23498;50.958;3.124;2023-05-24T05:16:20;24.17;;;9.68;;
37655;SDS011;23498;50.958;3.124;2023-05-24T05:18:46;19.92;;;9.48;;
37655;SDS011;23498;50.958;3.124;2023-05-24T05:21:12;27.42;;;9.93;;
37655;SDS011;23498;50.958;3.124;2023-05-24T05:23:38;21.85;;;8.73;;
37655;SDS011;23498;50.958;3.124;2023-05-24T05:26:05;17.77;;;7.28;;
37655;SDS011;23498;50.958;3.124;2023-05-24T05:28:34;19.85;;;8.13;;
37655;SDS011;23498;50.958;3.124;2023-05-24T05:31:00;19.88;;;7.88;;
37655;SDS011;23498;50.958;3.124;2023-05-24T05:33:26;17.08;;;7.10;;
37655;SDS011;23498;50.958;3.124;2023-05-24T05:35:52;15.48;;;7.10;;
37655;SDS011;23498;50.958;3.124;2023-05-24T05:38:18;19.85;;;7.72;;
37655;SDS011;23498;50.958;3.124;2023-05-24T05:40:44;18.50;;;7.75;;
37655;SDS011;23498;50.958;3.124;2023-05-24T05:43:10;20.52;;;7.72;;
37655;SDS011;23498;50.958;3.124;2023-05-24T05:45:36;14.85;;;7.22;;
37655;SDS011;23498;50.958;3.124;2023-05-24T05:48:02;23.67;;;7.72;;
37655;SDS011;23498;50.958;3.124;2023-05-24T05:50:28;16.17;;;6.53;;
37655;SDS011;23498;50.958;3.124;2023-05-24T05:52:54;18.30;;;6.88;;
37655;SDS011;23498;50.958;3.124;2023-05-24T05:55:21;22.92;;;7.47;;
37655;SDS011;23498;50.958;3.124;2023-05-24T05:57:47;15.10;;;7.75;;
37655;SDS011;23498;50.958;3.124;2023-05-24T06:00:14;20.27;;;7.55;;
37655;SDS011;23498;50.958;3.124;2023-05-24T06:02:40;16.25;;;6.88;;
37655;SDS011;23498;50.958;3.124;2023-05-24T06:05:06;17.70;;;6.57;;
37655;SDS011;23498;50.958;3.124;2023-05-24T06:07:32;18.17;;;7.15;;
37655;SDS011;23498;50.958;3.124;2023-05-24T06:10:01;22.05;;;6.90;;
37655;SDS011;23498;50.958;3.124;2023-05-24T06:12:27;14.88;;;7.80;;
37655;SDS011;23498;50.958;3.124;2023-05-24T06:14:53;18.52;;;6.57;;
37655;SDS011;23498;50.958;3.124;2023-05-24T06:17:21;18.05;;;6.43;;
37655;SDS011;23498;50.958;3.124;2023-05-24T06:19:48;17.08;;;6.65;;
37655;SDS011;23498;50.958;3.124;2023-05-24T06:22:15;20.38;;;6.18;;
37655;SDS011;23498;50.958;3.124;2023-05-24T06:24:41;16.23;;;6.43;;
37655;SDS011;23498;50.958;3.124;2023-05-24T06:27:07;15.70;;;6.20;;
37655;SDS011;23498;50.958;3.124;2023-05-24T06:29:33;17.35;;;6.47;;
37655;SDS011;23498;50.958;3.124;2023-05-24T06:31:59;15.93;;;6.68;;
37655;SDS011;23498;50.958;3.124;2023-05-24T06:34:25;19.05;;;5.80;;
37655;SDS011;23498;50.958;3.124;2023-05-24T06:36:53;14.45;;;5.85;;
37655;SDS011;23498;50.958;3.124;2023-05-24T06:39:19;15.57;;;5.32;;
37655;SDS011;23498;50.958;3.124;2023-05-24T06:41:45;17.67;;;5.68;;
37655;SDS011;23498;50.958;3.124;2023-05-24T06:44:12;20.30;;;5.75;;
37655;SDS011;23498;50.958;3.124;2023-05-24T06:46:38;17.08;;;6.00;;
37655;SDS011;23498;50.958;3.124;2023-05-24T06:49:04;17.13;;;5.80;;
37655;SDS011;23498;50.958;3.124;2023-05-24T06:51:30;15.48;;;4.72;;
37655;SDS011;23498;50.958;3.124;2023-05-24T06:53:57;16.17;;;5.68;;
37655;SDS011;23498;50.958;3.124;2023-05-24T06:56:24;14.35;;;5.13;;
37655;SDS011;23498;50.958;3.124;2023-05-24T06:58:50;15.77;;;5.45;;
37655;SDS011;23498;50.958;3.124;2023-05-24T07:01:17;13.65;;;4.80;;
37655;SDS011;23498;50.958;3.124;2023-05-24T07:03:43;14.80;;;5.30;;
37655;SDS011;23498;50.958;3.124;2023-05-24T07:06:09;18.45;;;6.43;;
37655;SDS011;23498;50.958;3.124;2023-05-24T07:08:38;17.35;;;6.57;;
37655;SDS011;23498;50.958;3.124;2023-05-24T07:11:07;18.88;;;6.05;;
37655;SDS011;23498;50.958;3.124;2023-05-24T07:13:33;14.05;;;5.45;;
37655;SDS011;23498;50.958;3.124;2023-05-24T07:15:59;13.45;;;6.43;;
37655;SDS011;23498;50.958;3.124;2023-05-24T07:18:26;17.92;;;6.55;;
37655;SDS011;23498;50.958;3.124;2023-05-24T07:20:52;16.77;;;5.45;;
37655;SDS011;23498;50.958;3.124;2023-05-24T07:23:18;15.98;;;6.53;;
37655;SDS011;23498;50.958;3.124;2023-05-24T07:25:44;15.43;;;5.20;;
37655;SDS011;23498;50.958;3.124;2023-05-24T07:28:10;14.65;;;5.18;;
37655;SDS011;23498;50.958;3.124;2023-05-24T07:30:39;14.98;;;4.78;;
37655;SDS011;23498;50.958;3.124;2023-05-24T07:33:05;16.02;;;5.18;;
37655;SDS011;23498;50.958;3.124;2023-05-24T07:35:31;16.17;;;5.10;;
37655;SDS011;23498;50.958;3.124;2023-05-24T07:37:57;11.35;;;4.13;;
37655;SDS011;23498;50.958;3.124;2023-05-24T07:40:24;13.52;;;4.60;;
37655;SDS011;23498;50.958;3.124;2023-05-24T07:42:50;13.50;;;4.55;;
37655;SDS011;23498;50.958;3.124;2023-05-24T07:45:16;14.95;;;4.65;;
37655;SDS011;23498;50.958;3.124;2023-05-24T07:47:42;14.23;;;4.30;;
37655;SDS011;23498;50.958;3.124;2023-05-24T07:50:08;17.05;;;4.13;;
37655;SDS011;23498;50.958;3.124;2023-05-24T07:52:35;15.20;;;4.40;;
37655;SDS011;23498;50.958;3.124;2023-05-24T07:55:02;12.93;;;4.78;;
37655;SDS011;23498;50.958;3.124;2023-05-24T07:57:28;16.23;;;4.60;;
37655;SDS011;23498;50.958;3.124;2023-05-24T07:59:54;14.30;;;4.55;;
37655;SDS011;23498;50.958;3.124;2023-05-24T08:02:20;13.77;;;4.70;;
37655;SDS011;23498;50.958;3.124;2023-05-24T08:04:46;13.35;;;4.55;;
37655;SDS011;23498;50.958;3.124;2023-05-24T08:07:12;15.13;;;5.10;;
37655;SDS011;23498;50.958;3.124;2023-05-24T08:09:40;17.23;;;5.40;;
37655;SDS011;23498;50.958;3.124;2023-05-24T08:12:06;12.50;;;4.60;;
37655;SDS011;23498;50.958;3.124;2023-05-24T08:14:32;15.82;;;4.90;;
37655;SDS011;23498;50.958;3.124;2023-05-24T08:16:58;13.73;;;4.63;;
37655;SDS011;23498;50.958;3.124;2023-05-24T08:19:25;12.27;;;4.68;;
37655;SDS011;23498;50.958;3.124;2023-05-24T08:21:51;16.25;;;4.55;;
37655;SDS011;23498;50.958;3.124;2023-05-24T08:24:18;12.23;;;4.47;;
37655;SDS011;23498;50.958;3.124;2023-05-24T08:26:44;13.35;;;4.43;;
37655;SDS011;23498;50.958;3.124;2023-05-24T08:29:11;12.90;;;4.47;;
37655;SDS011;23498;50.958;3.124;2023-05-24T08:31:37;14.90;;;4.90;;
37655;SDS011;23498;50.958;3.124;2023-05-24T08:34:03;13.13;;;4.38;;
37655;SDS011;23498;50.958;3.124;2023-05-24T08:36:29;13.07;;;4.18;;
37655;SDS011;23498;50.958;3.124;2023-05-24T08:38:55;14.13;;;3.90;;
37655;SDS011;23498;50.958;3.124;2023-05-24T08:41:22;13.07;;;4.28;;
37655;SDS011;23498;50.958;3.124;2023-05-24T08:43:48;9.82;;;3.33;;
37655;SDS011;23498;50.958;3.124;2023-05-24T08:46:15;11.93;;;3.90;;
37655;SDS011;23498;50.958;3.124;2023-05-24T08:48:45;7.85;;;4.07;;
37655;SDS011;23498;50.958;3.124;2023-05-24T08:51:15;11.00;;;3.95;;
37655;SDS011;23498;50.958;3.124;2023-05-24T08:53:42;9.73;;;3.75;;
37655;SDS011;23498;50.958;3.124;2023-05-24T08:56:13;10.77;;;3.80;;
37655;SDS011;23498;50.958;3.124;2023-05-24T08:58:41;10.68;;;3.72;;
37655;SDS011;23498;50.958;3.124;2023-05-24T09:01:07;12.00;;;3.60;;
37655;SDS011;23498;50.958;3.124;2023-05-24T09:03:33;9.85;;;3.55;;
37655;SDS011;23498;50.958;3.124;2023-05-24T09:06:01;11.50;;;3.53;;
37655;SDS011;23498;50.958;3.124;2023-05-24T09:08:27;10.85;;;3.40;;
37655;SDS011;23498;50.958;3.124;2023-05-24T09:10:54;12.43;;;4.50;;
37655;SDS011;23498;50.958;3.124;2023-05-24T09:13:20;11.63;;;3.47;;
37655;SDS011;23498;50.958;3.124;2023-05-24T09:15:48;11.00;;;4.05;;
37655;SDS011;23498;50.958;3.124;2023-05-24T09:18:14;10.88;;;3.78;;
37655;SDS011;23498;50.958;3.124;2023-05-24T09:20:40;12.82;;;3.60;;
37655;SDS011;23498;50.958;3.124;2023-05-24T09:23:06;7.78;;;3.95;;
37655;SDS011;23498;50.958;3.124;2023-05-24T09:25:32;11.82;;;3.92;;
37655;SDS011;23498;50.958;3.124;2023-05-24T09:28:00;11.55;;;3.80;;
37655;SDS011;23498;50.958;3.124;2023-05-24T09:30:30;11.70;;;3.53;;
37655;SDS011;23498;50.958;3.124;2023-05-24T09:32:56;11.25;;;3.90;;
37655;SDS011;23498;50.958;3.124;2023-05-24T09:35:22;10.73;;;4.20;;
37655;SDS011;23498;50.958;3.124;2023-05-24T09:37:51;12.57;;;3.95;;
37655;SDS011;23498;50.958;3.124;2023-05-24T09:40:19;9.27;;;3.70;;
37655;SDS011;23498;50.958;3.124;2023-05-24T09:42:45;8.02;;;3.28;;
37655;SDS011;23498;50.958;3.124;2023-05-24T09:45:15;9.43;;;3.38;;
37655;SDS011;23498;50.958;3.124;2023-05-24T09:47:42;7.22;;;3.13;;
37655;SDS011;23498;50.958;3.124;2023-05-24T09:50:12;14.55;;;4.43;;
37655;SDS011;23498;50.958;3.124;2023-05-24T09:52:39;10.90;;;3.60;;
37655;SDS011;23498;50.958;3.124;2023-05-24T09:55:12;10.55;;;3.20;;
37655;SDS011;23498;50.958;3.124;2023-05-24T09:57:39;9.27;;;3.47;;
37655;SDS011;23498;50.958;3.124;2023-05-24T10:00:06;15.32;;;3.88;;
37655;SDS011;23498;50.958;3.124;2023-05-24T10:02:38;7.35;;;3.40;;
37655;SDS011;23498;50.958;3.124;2023-05-24T10:05:04;10.00;;;4.03;;
37655;SDS011;23498;50.958;3.124;2023-05-24T10:07:32;7.63;;;3.83;;
37655;SDS011;23498;50.958;3.124;2023-05-24T10:09:58;13.05;;;4.20;;
37655;SDS011;23498;50.958;3.124;2023-05-24T10:12:24;11.27;;;3.70;;
37655;SDS011;23498;50.958;3.124;2023-05-24T10:14:50;9.77;;;4.25;;
37655;SDS011;23498;50.958;3.124;2023-05-24T10:17:16;12.07;;;4.03;;
37655;SDS011;23498;50.958;3.124;2023-05-24T10:19:42;10.40;;;4.05;;
37655;SDS011;23498;50.958;3.124;2023-05-24T10:22:10;12.30;;;3.88;;
37655;SDS011;23498;50.958;3.124;2023-05-24T10:24:38;10.55;;;3.35;;
37655;SDS011;23498;50.958;3.124;2023-05-24T10:27:09;8.68;;;3.83;;
37655;SDS011;23498;50.958;3.124;2023-05-24T10:32:23;9.60;;;4.22;;
37655;SDS011;23498;50.958;3.124;2023-05-24T10:34:50;10.70;;;4.28;;
37655;SDS011;23498;50.958;3.124;2023-05-24T10:37:18;11.45;;;4.28;;
37655;SDS011;23498;50.958;3.124;2023-05-24T10:39:44;12.85;;;4.18;;
37655;SDS011;23498;50.958;3.124;2023-05-24T10:42:10;9.00;;;4.43;;
37655;SDS011;23498;50.958;3.124;2023-05-24T10:44:37;10.63;;;4.43;;
37655;SDS011;23498;50.958;3.124;2023-05-24T10:47:10;11.18;;;4.25;;
37655;SDS011;23498;50.958;3.124;2023-05-24T10:49:37;9.18;;;4.13;;
37655;SDS011;23498;50.958;3.124;2023-05-24T10:52:07;8.23;;;4.25;;
37655;SDS011;23498;50.958;3.124;2023-05-24T10:54:33;11.25;;;4.10;;
37655;SDS011;23498;50.958;3.124;2023-05-24T10:57:01;11.40;;;4.20;;
37655;SDS011;23498;50.958;3.124;2023-05-24T11:01:58;7.13;;;3.50;;
37655;SDS011;23498;50.958;3.124;2023-05-24T11:04:25;8.55;;;3.92;;
37655;SDS011;23498;50.958;3.124;2023-05-24T11:09:19;12.30;;;4.25;;
37655;SDS011;23498;50.958;3.124;2023-05-24T11:11:46;8.18;;;3.92;;
37655;SDS011;23498;50.958;3.124;2023-05-24T11:14:16;11.27;;;4.18;;
37655;SDS011;23498;50.958;3.124;2023-05-24T11:16:44;10.50;;;4.20;;
37655;SDS011;23498;50.958;3.124;2023-05-24T11:19:15;12.27;;;4.30;;
37655;SDS011;23498;50.958;3.124;2023-05-24T11:21:45;9.68;;;3.70;;
37655;SDS011;23498;50.958;3.124;2023-05-24T11:24:12;9.80;;;4.10;;
37655;SDS011;23498;50.958;3.124;2023-05-24T11:26:38;6.18;;;3.38;;
37655;SDS011;23498;50.958;3.124;2023-05-24T11:29:05;10.73;;;4.60;;
37655;SDS011;23498;50.958;3.124;2023-05-24T11:31:31;8.10;;;3.90;;
37655;SDS011;23498;50.958;3.124;2023-05-24T11:34:01;8.88;;;4.07;;
37655;SDS011;23498;50.958;3.124;2023-05-24T11:36:27;8.52;;;3.63;;
37655;SDS011;23498;50.958;3.124;2023-05-24T11:38:54;7.88;;;4.05;;
37655;SDS011;23498;50.958;3.124;2023-05-24T11:41:20;7.05;;;3.60;;
37655;SDS011;23498;50.958;3.124;2023-05-24T11:43:46;7.97;;;3.70;;
37655;SDS011;23498;50.958;3.124;2023-05-24T11:46:12;8.40;;;3.70;;
37655;SDS011;23498;50.958;3.124;2023-05-24T11:48:38;8.27;;;3.55;;
37655;SDS011;23498;50.958;3.124;2023-05-24T11:51:04;7.57;;;3.80;;
37655;SDS011;23498;50.958;3.124;2023-05-24T11:53:30;7.65;;;3.35;;
37655;SDS011;23498;50.958;3.124;2023-05-24T11:55:56;6.78;;;3.30;;
37655;SDS011;23498;50.958;3.124;2023-05-24T11:58:23;7.68;;;3.25;;
37655;SDS011;23498;50.958;3.124;2023-05-24T12:00:50;5.85;;;3.38;;
37655;SDS011;23498;50.958;3.124;2023-05-24T12:03:17;5.95;;;3.50;;
37655;SDS011;23498;50.958;3.124;2023-05-24T12:05:43;9.45;;;3.88;;
37655;SDS011;23498;50.958;3.124;2023-05-24T12:08:10;6.88;;;3.53;;
37655;SDS011;23498;50.958;3.124;2023-05-24T12:10:37;7.05;;;3.63;;
37655;SDS011;23498;50.958;3.124;2023-05-24T12:13:03;5.95;;;3.38;;
37655;SDS011;23498;50.958;3.124;2023-05-24T12:15:29;8.45;;;3.90;;
37655;SDS011;23498;50.958;3.124;2023-05-24T12:17:56;6.63;;;3.90;;
37655;SDS011;23498;50.958;3.124;2023-05-24T12:20:22;6.75;;;3.40;;
37655;SDS011;23498;50.958;3.124;2023-05-24T12:22:52;7.40;;;3.63;;
37655;SDS011;23498;50.958;3.124;2023-05-24T12:25:19;8.77;;;3.33;;
37655;SDS011;23498;50.958;3.124;2023-05-24T12:27:52;8.40;;;3.35;;
37655;SDS011;23498;50.958;3.124;2023-05-24T12:30:23;8.05;;;3.92;;
37655;SDS011;23498;50.958;3.124;2023-05-24T12:32:49;9.50;;;3.90;;
37655;SDS011;23498;50.958;3.124;2023-05-24T12:35:16;7.93;;;3.95;;
37655;SDS011;23498;50.958;3.124;2023-05-24T12:37:42;7.30;;;3.33;;
37655;SDS011;23498;50.958;3.124;2023-05-24T12:40:18;8.18;;;3.60;;
37655;SDS011;23498;50.958;3.124;2023-05-24T12:42:57;6.40;;;3.53;;
37655;SDS011;23498;50.958;3.124;2023-05-24T12:45:25;7.38;;;4.05;;
37655;SDS011;23498;50.958;3.124;2023-05-24T12:50:18;9.13;;;4.00;;
37655;SDS011;23498;50.958;3.124;2023-05-24T12:52:45;7.60;;;3.70;;
37655;SDS011;23498;50.958;3.124;2023-05-24T12:55:14;7.07;;;4.10;;
37655;SDS011;23498;50.958;3.124;2023-05-24T12:57:40;6.95;;;3.47;;
37655;SDS011;23498;50.958;3.124;2023-05-24T13:00:07;6.53;;;3.50;;
37655;SDS011;23498;50.958;3.124;2023-05-24T13:02:34;8.52;;;3.83;;
37655;SDS011;23498;50.958;3.124;2023-05-24T13:05:00;9.70;;;4.03;;
37655;SDS011;23498;50.958;3.124;2023-05-24T13:07:28;12.63;;;5.00;;
37655;SDS011;23498;50.958;3.124;2023-05-24T13:09:54;8.82;;;4.13;;
37655;SDS011;23498;50.958;3.124;2023-05-24T13:12:20;12.18;;;4.32;;
37655;SDS011;23498;50.958;3.124;2023-05-24T13:14:46;8.35;;;3.88;;
37655;SDS011;23498;50.958;3.124;2023-05-24T13:17:12;10.95;;;3.97;;
37655;SDS011;23498;50.958;3.124;2023-05-24T13:19:40;8.50;;;3.63;;
37655;SDS011;23498;50.958;3.124;2023-05-24T13:22:06;9.05;;;3.75;;
37655;SDS011;23498;50.958;3.124;2023-05-24T13:24:32;12.73;;;3.95;;
37655;SDS011;23498;50.958;3.124;2023-05-24T13:26:58;9.50;;;4.18;;
37655;SDS011;23498;50.958;3.124;2023-05-24T13:29:24;9.18;;;4.53;;
37655;SDS011;23498;50.958;3.124;2023-05-24T13:31:50;7.63;;;3.70;;
37655;SDS011;23498;50.958;3.124;2023-05-24T13:34:16;11.43;;;4.20;;
37655;SDS011;23498;50.958;3.124;2023-05-24T13:36:43;8.35;;;4.10;;
37655;SDS011;23498;50.958;3.124;2023-05-24T13:39:10;9.15;;;4.22;;
37655;SDS011;23498;50.958;3.124;2023-05-24T13:41:37;8.73;;;3.90;;
37655;SDS011;23498;50.958;3.124;2023-05-24T13:44:03;8.30;;;3.53;;
37655;SDS011;23498;50.958;3.124;2023-05-24T13:46:32;10.77;;;4.00;;
37655;SDS011;23498;50.958;3.124;2023-05-24T13:49:00;9.18;;;4.28;;
37655;SDS011;23498;50.958;3.124;2023-05-24T13:51:26;7.97;;;3.65;;
37655;SDS011;23498;50.958;3.124;2023-05-24T13:53:52;9.27;;;4.13;;
37655;SDS011;23498;50.958;3.124;2023-05-24T13:56:19;9.07;;;3.97;;
37655;SDS011;23498;50.958;3.124;2023-05-24T13:58:46;11.60;;;4.10;;
37655;SDS011;23498;50.958;3.124;2023-05-24T14:01:12;9.13;;;4.03;;
37655;SDS011;23498;50.958;3.124;2023-05-24T14:03:38;10.98;;;3.78;;
37655;SDS011;23498;50.958;3.124;2023-05-24T14:06:05;9.20;;;4.15;;
37655;SDS011;23498;50.958;3.124;2023-05-24T14:08:31;9.80;;;4.18;;
37655;SDS011;23498;50.958;3.124;2023-05-24T14:10:58;13.10;;;4.43;;
37655;SDS011;23498;50.958;3.124;2023-05-24T14:13:24;9.93;;;4.00;;
37655;SDS011;23498;50.958;3.124;2023-05-24T14:15:50;13.40;;;4.40;;
37655;SDS011;23498;50.958;3.124;2023-05-24T14:18:16;9.98;;;4.82;;
37655;SDS011;23498;50.958;3.124;2023-05-24T14:20:42;10.93;;;4.10;;
37655;SDS011;23498;50.958;3.124;2023-05-24T14:23:08;9.95;;;3.90;;
37655;SDS011;23498;50.958;3.124;2023-05-24T14:25:34;12.48;;;4.22;;
37655;SDS011;23498;50.958;3.124;2023-05-24T14:28:00;12.50;;;4.55;;
37655;SDS011;23498;50.958;3.124;2023-05-24T14:30:29;9.85;;;4.38;;
37655;SDS011;23498;50.958;3.124;2023-05-24T14:32:56;10.70;;;4.40;;
37655;SDS011;23498;50.958;3.124;2023-05-24T14:35:22;8.98;;;3.92;;
37655;SDS011;23498;50.958;3.124;2023-05-24T14:37:48;10.30;;;4.25;;
37655;SDS011;23498;50.958;3.124;2023-05-24T14:40:14;9.75;;;3.08;;
37655;SDS011;23498;50.958;3.124;2023-05-24T14:42:40;10.35;;;4.05;;
37655;SDS011;23498;50.958;3.124;2023-05-24T14:45:06;7.97;;;3.58;;
37655;SDS011;23498;50.958;3.124;2023-05-24T14:47:32;10.02;;;3.85;;
37655;SDS011;23498;50.958;3.124;2023-05-24T14:49:58;11.27;;;4.30;;
37655;SDS011;23498;50.958;3.124;2023-05-24T14:52:24;7.90;;;3.78;;
37655;SDS011;23498;50.958;3.124;2023-05-24T14:54:50;9.88;;;4.30;;
37655;SDS011;23498;50.958;3.124;2023-05-24T14:57:16;10.15;;;4.07;;
37655;SDS011;23498;50.958;3.124;2023-05-24T14:59:42;11.38;;;4.40;;
37655;SDS011;23498;50.958;3.124;2023-05-24T15:02:08;9.63;;;4.43;;